Time;durP1;ratioP1;P1;durP2;ratioP2;P2;SDS_P1;SDS_P2;PMS_P1;PMS_P2;Temp;Humidity;BMP_temperature;BMP_pressure;BME280_temperature;BME280_humidity;BME280_pressure;Samples;Min_cycle;Max_cycle;Signal;HPM_P1;HPM_P2
2024/03/07 00:00:23;;;;;;;73.60;39.42;;;;;;;5.31;91.62;101893.19;4967353;28;20055;-78
2024/03/07 00:02:51;;;;;;;72.10;37.88;;;;;;;5.22;92.36;101905.84;4954961;28;20146;-77
2024/03/07 00:05:19;;;;;;;73.85;40.08;;;;;;;5.15;92.64;101897.41;4956731;28;20052;-77
2024/03/07 00:07:46;;;;;;;75.53;38.95;;;;;;;5.13;93.35;101904.47;4955473;28;20130;-78
2024/03/07 00:10:15;;;;;;;76.85;40.35;;;;;;;5.08;93.28;101896.81;4955092;28;20086;-77
2024/03/07 00:12:41;;;;;;;69.53;38.38;;;;;;;5.13;92.88;101903.63;4955109;28;20663;-78
2024/03/07 00:15:10;;;;;;;72.97;39.28;;;;;;;5.06;92.24;101901.28;4954901;28;20425;-78
2024/03/07 00:17:39;;;;;;;69.95;37.80;;;;;;;5.05;92.60;101911.84;4954862;28;20054;-77
2024/03/07 00:20:09;;;;;;;73.45;38.78;;;;;;;5.04;92.77;101911.00;4954367;28;20522;-78
2024/03/07 00:22:36;;;;;;;74.30;38.75;;;;;;;4.97;92.93;101906.94;4956780;28;20086;-77
2024/03/07 00:25:04;;;;;;;73.85;38.92;;;;;;;5.00;93.24;101912.06;4961241;28;20057;-78
2024/03/07 00:27:31;;;;;;;68.55;37.67;;;;;;;4.97;92.85;101911.34;4968485;28;20054;-78
2024/03/07 00:29:58;;;;;;;73.60;38.05;;;;;;;4.89;93.88;101902.94;4957791;28;20146;-78
2024/03/07 00:32:26;;;;;;;74.78;39.30;;;;;;;4.86;93.97;101903.91;4964980;28;20509;-78
2024/03/07 00:34:54;;;;;;;72.63;37.58;;;;;;;4.96;93.08;101912.25;4955048;28;20508;-77
2024/03/07 00:37:21;;;;;;;75.93;39.42;;;;;;;4.89;93.03;101905.56;4954034;28;20134;-77
2024/03/07 00:39:48;;;;;;;76.65;40.78;;;;;;;4.91;94.17;101908.97;4965932;28;20105;-78
2024/03/07 00:42:18;;;;;;;78.80;40.38;;;;;;;4.86;94.74;101917.03;4970006;28;20143;-78
2024/03/07 00:44:49;;;;;;;80.47;40.80;;;;;;;4.80;95.34;101901.56;4956307;28;20087;-78
2024/03/07 00:47:17;;;;;;;81.60;42.28;;;;;;;4.76;94.79;101894.75;4956553;28;20055;-78
2024/03/07 00:49:45;;;;;;;85.22;41.30;;;;;;;4.72;95.06;101899.25;4966133;28;20057;-78
2024/03/07 00:52:13;;;;;;;77.45;40.58;;;;;;;4.67;94.95;101901.22;4959419;28;20082;-78
2024/03/07 00:54:40;;;;;;;77.68;40.08;;;;;;;4.60;95.71;101898.91;4953773;28;20078;-76
2024/03/07 00:57:07;;;;;;;78.10;40.97;;;;;;;4.55;96.06;101901.75;4953989;28;20489;-77
2024/03/07 00:59:34;;;;;;;80.95;41.40;;;;;;;4.51;96.75;101894.94;4954400;28;20057;-76
2024/03/07 01:02:00;;;;;;;83.60;42.67;;;;;;;4.42;96.15;101898.81;4954557;28;20544;-78
2024/03/07 01:04:30;;;;;;;81.60;41.08;;;;;;;4.47;96.15;101893.38;4954425;28;20086;-78
2024/03/07 01:06:57;;;;;;;79.47;40.50;;;;;;;4.42;95.76;101896.19;4958928;28;20502;-78
2024/03/07 01:09:25;;;;;;;82.22;41.85;;;;;;;4.43;95.77;101902.28;4974637;28;20047;-77
2024/03/07 01:11:52;;;;;;;84.72;42.65;;;;;;;4.38;95.36;101897.22;4954531;28;20122;-76
2024/03/07 01:14:18;;;;;;;78.85;39.72;;;;;;;4.31;95.79;101888.75;4954358;28;20142;-77
2024/03/07 01:16:45;;;;;;;81.70;41.75;;;;;;;4.30;96.20;101883.56;4957896;28;20079;-77
2024/03/07 01:19:12;;;;;;;83.32;41.88;;;;;;;4.20;97.09;101884.88;4960199;28;20065;-77
2024/03/07 01:21:38;;;;;;;80.82;41.17;;;;;;;4.21;97.41;101886.56;4962140;28;20543;-77
2024/03/07 01:24:06;;;;;;;85.63;41.53;;;;;;;4.34;97.07;101886.94;4959248;28;20083;-77
2024/03/07 01:26:34;;;;;;;91.82;43.08;;;;;;;4.27;97.37;101881.91;4953802;28;20394;-77
2024/03/07 01:29:01;;;;;;;90.60;43.83;;;;;;;4.20;97.78;101880.47;4953438;28;20126;-77
2024/03/07 01:31:27;;;;;;;87.85;44.55;;;;;;;4.05;97.77;101876.69;4953473;28;20130;-77
2024/03/07 01:33:55;;;;;;;83.05;41.95;;;;;;;4.02;98.20;101870.75;4953792;28;20551;-77
2024/03/07 01:36:21;;;;;;;91.28;43.72;;;;;;;3.95;98.24;101872.75;4953569;28;20085;-78
2024/03/07 01:38:48;;;;;;;92.10;44.78;;;;;;;3.89;98.32;101875.63;4956309;28;20518;-78
2024/03/07 01:41:15;;;;;;;93.65;44.10;;;;;;;3.88;98.77;101870.41;4959071;28;20146;-78
2024/03/07 01:43:44;;;;;;;96.63;44.90;;;;;;;3.92;98.51;101869.38;4953961;28;20061;-78
2024/03/07 01:46:11;;;;;;;87.63;42.17;;;;;;;3.91;98.50;101867.69;4956666;28;20131;-78
2024/03/07 01:48:40;;;;;;;91.25;42.22;;;;;;;3.87;98.77;101866.94;4956858;28;20062;-78
2024/03/07 01:51:08;;;;;;;89.97;43.17;;;;;;;3.78;99.34;101869.94;4979967;28;20058;-78
2024/03/07 01:53:35;;;;;;;90.75;43.28;;;;;;;3.79;99.00;101869.91;4981268;28;20055;-78
2024/03/07 01:56:03;;;;;;;95.13;44.40;;;;;;;3.87;98.74;101864.34;4980864;28;20145;-77
2024/03/07 01:58:31;;;;;;;94.78;44.33;;;;;;;3.88;97.90;101860.78;4978616;28;20445;-77
2024/03/07 02:00:59;;;;;;;91.75;43.75;;;;;;;3.87;97.82;101855.63;4981591;28;20074;-78
2024/03/07 02:03:26;;;;;;;97.78;43.70;;;;;;;3.81;98.23;101856.72;4975206;28;20051;-78
2024/03/07 02:05:52;;;;;;;96.55;42.45;;;;;;;3.71;98.17;101856.25;4982001;28;20074;-78
2024/03/07 02:08:19;;;;;;;96.93;44.10;;;;;;;3.73;98.59;101857.03;4983459;28;20082;-79
2024/03/07 02:10:46;;;;;;;83.53;41.42;;;;;;;3.73;98.33;101850.94;4985931;28;20074;-80
2024/03/07 02:13:12;;;;;;;91.90;41.15;;;;;;;3.65;97.24;101850.38;4980524;28;20468;-78
2024/03/07 02:15:39;;;;;;;88.85;41.03;;;;;;;3.61;97.45;101848.78;4981709;28;20082;-78
2024/03/07 02:18:09;;;;;;;87.88;41.63;;;;;;;3.64;96.66;101844.28;4979881;28;20086;-78
2024/03/07 02:20:35;;;;;;;79.35;39.08;;;;;;;3.55;96.20;101845.50;4979394;28;20133;-79
2024/03/07 02:23:04;;;;;;;80.82;39.20;;;;;;;3.45;96.66;101838.94;4981378;28;20104;-79
2024/03/07 02:25:31;;;;;;;74.68;37.47;;;;;;;3.32;96.95;101835.06;4980328;28;20114;-79
2024/03/07 02:27:58;;;;;;;78.07;36.83;;;;;;;3.27;96.70;101834.41;4975479;28;20046;-79
2024/03/07 02:30:25;;;;;;;75.32;36.72;;;;;;;3.23;96.89;101840.66;4982417;28;20516;-78
2024/03/07 02:32:54;;;;;;;73.57;36.95;;;;;;;3.23;97.22;101832.81;4984284;28;20130;-79
2024/03/07 02:35:21;;;;;;;72.00;36.10;;;;;;;3.16;97.22;101826.09;4984295;28;20149;-79
2024/03/07 02:37:48;;;;;;;67.55;34.40;;;;;;;3.20;96.86;101836.38;4985054;28;20058;-79
2024/03/07 02:40:17;;;;;;;75.40;37.17;;;;;;;3.05;97.71;101831.72;4984971;28;20055;-78
2024/03/07 02:42:43;;;;;;;75.10;36.30;;;;;;;3.10;97.30;101839.41;4988615;28;20458;-79
2024/03/07 02:45:14;;;;;;;73.82;35.45;;;;;;;3.08;97.65;101823.78;4978864;28;20134;-79
2024/03/07 02:47:41;;;;;;;74.82;37.08;;;;;;;3.11;97.18;101828.03;4981253;28;20047;-78
2024/03/07 02:50:21;;;;;;;73.05;36.83;;;;;;;3.07;97.67;101824.66;4980314;28;20172;-77
2024/03/07 02:52:48;;;;;;;80.03;38.53;;;;;;;3.01;97.67;101824.91;4976584;28;20051;-80
2024/03/07 02:55:16;;;;;;;71.80;35.85;;;;;;;2.95;97.78;101836.44;4978839;28;20137;-77
2024/03/07 02:57:43;;;;;;;72.85;36.40;;;;;;;2.97;97.89;101828.53;4980929;28;20046;-78
2024/03/07 03:00:19;;;;;;;80.65;37.47;;;;;;;2.94;98.38;101824.25;4982526;28;20046;-78
2024/03/07 03:02:47;;;;;;;79.75;37.95;;;;;;;2.98;98.39;101818.00;4976752;28;20070;-78
2024/03/07 03:05:15;;;;;;;78.78;38.38;;;;;;;2.92;98.47;101817.38;4981145;28;20213;-78
2024/03/07 03:07:41;;;;;;;79.97;38.33;;;;;;;2.89;98.79;101817.50;4978651;28;20050;-78
2024/03/07 03:10:10;;;;;;;78.75;38.20;;;;;;;2.94;98.06;101815.56;4979142;28;20078;-78
2024/03/07 03:12:38;;;;;;;80.60;38.83;;;;;;;2.91;97.83;101811.31;4976404;28;20058;-78
2024/03/07 03:15:07;;;;;;;75.13;36.83;;;;;;;2.97;97.34;101812.84;4979547;28;20217;-78
2024/03/07 03:17:36;;;;;;;76.57;36.53;;;;;;;2.83;97.79;101808.13;4971148;28;20051;-78
2024/03/07 03:20:04;;;;;;;79.13;38.72;;;;;;;2.78;98.75;101810.06;4979628;28;20171;-79
2024/03/07 03:22:31;;;;;;;82.05;39.15;;;;;;;2.79;98.19;101804.75;4976597;28;20125;-78
2024/03/07 03:24:57;;;;;;;77.97;37.15;;;;;;;2.75;98.26;101811.00;4970308;28;20153;-78
2024/03/07 03:27:24;;;;;;;74.05;36.70;;;;;;;2.71;98.00;101809.41;4979861;28;20078;-78
2024/03/07 03:29:52;;;;;;;80.18;38.20;;;;;;;2.66;97.44;101800.03;4981073;28;20390;-79
2024/03/07 03:32:18;;;;;;;73.32;36.00;;;;;;;2.67;97.88;101801.72;4973459;28;20079;-79
2024/03/07 03:34:45;;;;;;;75.82;36.78;;;;;;;2.62;97.59;101808.88;4981224;28;20078;-78
2024/03/07 03:37:12;;;;;;;76.25;37.10;;;;;;;2.62;98.10;101811.50;4979965;28;20053;-78
2024/03/07 03:39:39;;;;;;;75.45;36.95;;;;;;;2.62;97.38;101814.97;4981259;28;20079;-79
2024/03/07 03:42:06;;;;;;;73.60;36.13;;;;;;;2.59;97.76;101814.19;4974114;28;20051;-79
2024/03/07 03:44:34;;;;;;;68.43;36.00;;;;;;;2.57;97.55;101821.25;4977008;28;20109;-78
2024/03/07 03:47:03;;;;;;;77.85;36.65;;;;;;;2.50;97.24;101815.38;4977171;28;20057;-78
2024/03/07 03:49:30;;;;;;;74.78;36.53;;;;;;;2.49;97.78;101805.84;4977689;28;20062;-78
2024/03/07 03:51:57;;;;;;;72.18;35.88;;;;;;;2.44;97.78;101807.75;4973558;28;20414;-78
2024/03/07 03:54:24;;;;;;;73.03;37.45;;;;;;;2.42;97.83;101804.38;4958995;28;20043;-78
2024/03/07 03:56:50;;;;;;;73.45;34.53;;;;;;;2.40;98.35;101809.63;4961312;28;20079;-79
2024/03/07 03:59:17;;;;;;;79.30;37.17;;;;;;;2.43;98.14;101809.53;4962202;28;20102;-79
2024/03/07 04:01:45;;;;;;;73.93;36.35;;;;;;;2.45;98.11;101799.88;4958086;28;20550;-78
2024/03/07 04:04:13;;;;;;;72.38;36.38;;;;;;;2.40;97.79;101804.41;4955935;28;20055;-77
2024/03/07 04:06:40;;;;;;;76.82;36.28;;;;;;;2.36;97.78;101800.19;4954451;28;20533;-77
2024/03/07 04:09:07;;;;;;;79.90;38.92;;;;;;;2.40;97.57;101796.56;4955062;28;20529;-78
2024/03/07 04:11:33;;;;;;;72.97;36.15;;;;;;;2.32;97.59;101800.34;4956198;28;20074;-78
2024/03/07 04:14:01;;;;;;;73.75;36.55;;;;;;;2.31;97.51;101802.09;4955539;28;20066;-77
2024/03/07 04:16:27;;;;;;;74.72;34.47;;;;;;;2.33;97.38;101802.06;4954819;28;20130;-78
2024/03/07 04:18:54;;;;;;;69.63;34.65;;;;;;;2.28;97.58;101792.63;4956608;28;20070;-77
2024/03/07 04:21:25;;;;;;;74.38;34.58;;;;;;;2.28;97.01;101797.00;4966436;28;20101;-77
2024/03/07 04:23:52;;;;;;;76.82;36.17;;;;;;;2.28;96.99;101794.41;4953598;28;20139;-77
2024/03/07 04:26:18;;;;;;;73.13;35.95;;;;;;;2.23;97.11;101791.94;4953369;28;20488;-77
2024/03/07 04:28:45;;;;;;;74.28;35.30;;;;;;;2.23;96.65;101793.66;4962897;28;20130;-77
2024/03/07 04:31:11;;;;;;;69.68;35.75;;;;;;;2.24;96.91;101795.41;4969871;28;20047;-77
2024/03/07 04:33:38;;;;;;;68.90;34.58;;;;;;;2.17;96.72;101791.28;4950821;28;20111;-78
2024/03/07 04:36:07;;;;;;;69.78;33.53;;;;;;;2.13;97.15;101792.28;4956314;28;20058;-77
2024/03/07 04:38:35;;;;;;;68.50;33.55;;;;;;;2.05;96.87;101787.31;4957186;28;20055;-78
2024/03/07 04:41:05;;;;;;;70.15;35.30;;;;;;;2.03;97.26;101799.56;4955057;28;20094;-77
2024/03/07 04:43:33;;;;;;;70.78;35.28;;;;;;;2.01;97.15;101793.56;4954730;28;20055;-78
2024/03/07 04:45:59;;;;;;;64.43;33.28;;;;;;;2.05;97.44;101791.69;4960061;28;20048;-78
2024/03/07 04:48:26;;;;;;;72.18;35.00;;;;;;;1.97;97.02;101792.81;4962801;28;20078;-77
2024/03/07 04:50:53;;;;;;;74.13;33.28;;;;;;;1.97;97.20;101795.41;4965647;28;20473;-76
2024/03/07 04:53:19;;;;;;;68.65;35.05;;;;;;;1.96;97.86;101793.69;4965693;28;20038;-78
2024/03/07 04:55:47;;;;;;;72.30;34.72;;;;;;;1.98;97.36;101791.03;4964905;28;20055;-77
2024/03/07 04:58:14;;;;;;;72.70;35.30;;;;;;;1.97;97.40;101787.59;4967044;28;20050;-78
2024/03/07 05:00:41;;;;;;;67.13;33.00;;;;;;;1.91;97.73;101798.19;4956468;28;20139;-78
2024/03/07 05:03:07;;;;;;;72.65;33.55;;;;;;;1.84;98.39;101798.47;4955714;28;20577;-78
2024/03/07 05:05:34;;;;;;;71.43;34.22;;;;;;;1.84;98.88;101803.69;4957368;28;20062;-78
2024/03/07 05:08:00;;;;;;;65.57;34.40;;;;;;;1.87;98.46;101800.97;4960042;28;20055;-78
2024/03/07 05:10:29;;;;;;;72.47;34.33;;;;;;;1.85;98.72;101790.59;4957862;28;20088;-78
2024/03/07 05:13:10;;;;;;;79.20;34.63;;;;;;;1.93;99.07;101793.81;4962528;28;20051;-78
2024/03/07 05:15:37;;;;;;;75.38;36.10;;;;;;;1.97;99.20;101802.41;4954596;28;20429;-76
2024/03/07 05:18:04;;;;;;;75.32;35.70;;;;;;;2.00;100.00;101799.66;4958122;28;20047;-77
2024/03/07 05:20:31;;;;;;;80.82;37.42;;;;;;;2.14;100.00;101796.59;4957670;28;20046;-76
2024/03/07 05:22:58;;;;;;;84.97;38.38;;;;;;;2.25;100.00;101802.31;4959870;28;20051;-77
2024/03/07 05:25:25;;;;;;;79.88;37.05;;;;;;;2.40;99.74;101793.09;4957443;28;20081;-76
2024/03/07 05:27:53;;;;;;;80.07;38.05;;;;;;;2.46;99.19;101796.38;4961569;28;20047;-77
2024/03/07 05:30:23;;;;;;;76.70;36.75;;;;;;;2.45;99.41;101792.03;4972426;28;20051;-77
2024/03/07 05:32:50;;;;;;;86.93;38.30;;;;;;;2.43;99.19;101793.84;4963875;28;20577;-77
2024/03/07 05:35:16;;;;;;;91.07;40.10;;;;;;;2.44;99.44;101799.94;4956069;28;20043;-77
2024/03/07 05:37:46;;;;;;;91.22;39.47;;;;;;;2.46;99.46;101798.97;4954775;28;20085;-77
2024/03/07 05:40:13;;;;;;;87.72;38.40;;;;;;;2.50;99.63;101795.34;4953027;28;20118;-77
2024/03/07 05:42:40;;;;;;;84.63;39.33;;;;;;;2.51;99.70;101791.81;4962140;28;20096;-77
2024/03/07 05:45:08;;;;;;;88.90;38.20;;;;;;;2.52;99.99;101785.69;4959701;28;20127;-77
2024/03/07 05:47:36;;;;;;;86.65;38.95;;;;;;;2.52;100.00;101788.31;4953931;28;20055;-77
2024/03/07 05:50:03;;;;;;;79.93;38.10;;;;;;;2.50;100.00;101790.13;4951505;28;20474;-77
2024/03/07 05:52:30;;;;;;;86.70;37.70;;;;;;;2.50;100.00;101790.13;4952360;28;20131;-77
2024/03/07 05:54:57;;;;;;;93.85;41.33;;;;;;;2.55;100.00;101787.34;4952986;28;20066;-77
2024/03/07 05:57:23;;;;;;;86.07;38.10;;;;;;;2.59;99.94;101783.72;4957450;28;20059;-77
2024/03/07 05:59:50;;;;;;;82.53;38.30;;;;;;;2.64;100.00;101786.19;4952699;28;20517;-77
2024/03/07 06:02:16;;;;;;;84.07;38.97;;;;;;;2.65;99.61;101783.50;4959260;28;20133;-77
2024/03/07 06:04:44;;;;;;;80.30;41.55;;;;;;;2.70;99.80;101788.56;4964984;28;20560;-78
2024/03/07 06:07:12;;;;;;;94.00;42.30;;;;;;;2.75;99.43;101784.84;4966394;28;20138;-76
2024/03/07 06:09:38;;;;;;;79.80;37.78;;;;;;;2.80;98.66;101789.91;4953187;28;20047;-78
2024/03/07 06:12:08;;;;;;;81.80;38.38;;;;;;;2.82;98.71;101784.66;4961202;28;20074;-78
2024/03/07 06:14:35;;;;;;;78.20;38.42;;;;;;;2.89;98.20;101786.13;4958604;28;20090;-77
2024/03/07 06:17:01;;;;;;;88.80;39.33;;;;;;;2.98;97.92;101780.53;4953664;28;20086;-77
2024/03/07 06:19:28;;;;;;;85.05;38.72;;;;;;;3.06;97.31;101788.97;4954311;28;20130;-78
2024/03/07 06:21:56;;;;;;;87.47;39.65;;;;;;;3.13;96.50;101795.69;4955178;28;20053;-77
2024/03/07 06:24:23;;;;;;;80.18;38.55;;;;;;;3.26;97.77;101794.31;4972703;28;20133;-78
2024/03/07 06:26:59;;;;;;;80.93;38.60;;;;;;;3.32;96.51;101785.38;4968278;28;20046;-78
2024/03/07 06:29:26;;;;;;;76.90;37.75;;;;;;;3.35;96.86;101785.25;4959844;28;20422;-79
2024/03/07 06:31:53;;;;;;;77.22;38.20;;;;;;;3.45;96.07;101786.59;4968321;28;20055;-79
2024/03/07 06:34:23;;;;;;;70.60;37.35;;;;;;;3.46;94.77;101787.44;4958203;28;20141;-74
2024/03/07 06:36:50;;;;;;;75.70;37.92;;;;;;;3.54;95.14;101786.22;4963465;28;20131;-77
2024/03/07 06:39:21;;;;;;;74.00;35.22;;;;;;;3.63;92.99;101784.16;4975585;28;20134;-78
2024/03/07 06:41:48;;;;;;;74.28;36.00;;;;;;;3.68;92.40;101780.44;4961064;28;20441;-76
2024/03/07 06:44:23;;;;;;;74.85;35.17;;;;;;;4.09;90.78;101780.50;4966000;28;20100;-76
2024/03/07 06:46:49;;;;;;;67.72;33.70;;;;;;;4.47;89.62;101786.75;4973918;28;20086;-80
2024/03/07 06:49:16;;;;;;;61.90;34.03;;;;;;;4.84;86.79;101786.91;4982146;28;20138;-79
2024/03/07 06:51:42;;;;;;;59.90;31.60;;;;;;;4.93;84.47;101782.06;4979402;28;20087;-80
2024/03/07 06:54:10;;;;;;;55.40;31.45;;;;;;;5.23;85.13;101781.59;4962655;28;20055;-79
2024/03/07 06:56:40;;;;;;;57.45;31.23;;;;;;;5.53;83.90;101777.50;4962778;28;20149;-79
2024/03/07 06:59:07;;;;;;;54.63;31.13;;;;;;;5.60;81.59;101782.47;4972190;28;20062;-78
2024/03/07 07:01:34;;;;;;;52.25;30.23;;;;;;;5.60;81.11;101777.22;4975324;28;20046;-80
2024/03/07 07:04:03;;;;;;;57.00;28.90;;;;;;;5.70;80.97;101781.09;4971287;28;20055;-79
2024/03/07 07:06:30;;;;;;;55.85;30.77;;;;;;;5.65;81.40;101775.22;4972493;28;20079;-78
2024/03/07 07:08:58;;;;;;;52.83;29.20;;;;;;;6.04;79.73;101773.31;4957973;28;20043;-77
2024/03/07 07:11:25;;;;;;;52.70;29.02;;;;;;;6.30;78.19;101779.03;4972255;28;20259;-77
2024/03/07 07:13:53;;;;;;;51.35;28.40;;;;;;;6.84;76.17;101770.03;4956398;28;20067;-77
2024/03/07 07:16:19;;;;;;;49.30;29.08;;;;;;;7.05;74.79;101778.56;4957089;28;20134;-79
2024/03/07 07:18:46;;;;;;;46.17;28.17;;;;;;;6.98;74.68;101776.34;4965335;28;20082;-78
2024/03/07 07:21:15;;;;;;;46.90;27.45;;;;;;;6.92;74.23;101781.91;4971408;28;20519;-77
2024/03/07 07:23:42;;;;;;;48.90;26.90;;;;;;;6.62;74.93;101773.88;4969222;28;20138;-77
2024/03/07 07:26:50;;;;;;;43.75;26.48;;;;;;;7.00;72.64;101763.94;4997368;23;20050;-80
2024/03/07 07:29:41;;;;;;;45.65;26.10;;;;;;;6.96;72.32;101767.66;4973673;28;20089;-82
2024/03/07 07:34:58;;;;;;;42.70;27.17;;;;;;;6.90;72.44;101768.84;4961188;28;20106;-78
2024/03/07 07:37:25;;;;;;;42.78;26.90;;;;;;;7.21;71.51;101764.53;4978834;28;20065;-81
2024/03/07 07:42:46;;;;;;;;;;;;;;;6.93;72.01;101768.69;4951497;28;20051;-82
2024/03/07 07:45:59;;;;;;;40.13;24.95;;;;;;;7.23;70.14;101765.28;4985051;28;19928;-82
2024/03/07 07:54:42;;;;;;;40.33;25.70;;;;;;;6.94;70.22;101762.47;4949068;28;20058;-82
2024/03/07 07:57:11;;;;;;;39.75;26.17;;;;;;;7.11;69.86;101766.84;4976267;28;20078;-81
2024/03/07 07:59:51;;;;;;;43.35;25.77;;;;;;;7.25;68.79;101763.44;4982175;28;20043;-81
2024/03/07 08:02:23;;;;;;;45.10;27.23;;;;;;;7.41;68.25;101763.44;4979889;28;20105;-81
2024/03/07 08:04:54;;;;;;;43.45;25.77;;;;;;;7.24;68.40;101759.13;4978341;28;20055;-81
2024/03/07 08:07:21;;;;;;;39.50;25.55;;;;;;;7.80;67.32;101752.41;4978567;28;20134;-82
2024/03/07 08:09:56;;;;;;;37.83;25.48;;;;;;;7.40;67.31;101756.47;4981386;28;20077;-82
2024/03/07 08:15:47;;;;;;;38.88;25.23;;;;;;;7.49;65.95;101764.69;4974240;28;20055;-82
2024/03/07 08:18:27;;;;;;;37.60;24.77;;;;;;;7.40;66.99;101767.00;4981511;28;20054;-81
2024/03/07 08:20:53;;;;;;;38.38;23.77;;;;;;;7.88;65.21;101758.09;4981000;28;20059;-81
2024/03/07 08:23:20;;;;;;;34.78;24.38;;;;;;;8.17;64.97;101756.41;4978447;28;20065;-81
2024/03/07 08:25:47;;;;;;;39.63;24.35;;;;;;;7.71;65.35;101756.44;4981447;28;20143;-82
2024/03/07 08:28:14;;;;;;;33.70;23.05;;;;;;;8.14;62.81;101756.56;4985763;28;20085;-82
2024/03/07 08:30:44;;;;;;;36.45;23.75;;;;;;;7.82;64.43;101754.03;4980631;28;20046;-83
2024/03/07 08:33:12;;;;;;;33.10;23.10;;;;;;;8.07;62.08;101745.53;4981867;28;20054;-82
2024/03/07 08:35:43;;;;;;;33.83;23.48;;;;;;;7.83;62.91;101752.25;4972548;28;20046;-82
2024/03/07 08:38:20;;;;;;;34.72;22.30;;;;;;;7.77;61.86;101757.88;4981544;28;20066;-82
2024/03/07 08:40:47;;;;;;;32.75;22.88;;;;;;;7.85;61.89;101747.72;4981021;28;20054;-82
2024/03/07 08:43:24;;;;;;;33.95;21.70;;;;;;;8.25;60.13;101740.09;4980793;28;20138;-81
2024/03/07 08:45:55;;;;;;;34.42;20.60;;;;;;;7.96;59.02;101739.22;4977731;28;20050;-83
2024/03/07 08:48:23;;;;;;;26.83;19.00;;;;;;;7.87;57.62;101735.31;4980595;28;20065;-80
2024/03/07 08:50:51;;;;;;;30.60;20.35;;;;;;;7.65;58.92;101746.25;4981040;28;20109;-81
2024/03/07 08:53:27;;;;;;;28.92;18.48;;;;;;;7.79;57.51;101732.28;4975415;28;20069;-80
2024/03/07 08:55:58;;;;;;;28.25;18.33;;;;;;;7.67;56.93;101722.44;4980897;28;20070;-81
2024/03/07 08:58:24;;;;;;;29.48;19.13;;;;;;;8.07;56.18;101720.94;4971933;28;20066;-81
2024/03/07 09:00:52;;;;;;;28.48;19.48;;;;;;;8.04;55.96;101735.19;4979923;28;20113;-80
2024/03/07 09:03:23;;;;;;;30.27;17.77;;;;;;;8.17;55.10;101737.94;4979510;28;20106;-80
2024/03/07 09:05:52;;;;;;;29.90;18.88;;;;;;;7.92;54.90;101727.16;4980086;28;20058;-80
2024/03/07 09:08:18;;;;;;;32.90;19.02;;;;;;;7.71;56.03;101734.50;4979546;28;20070;-80
2024/03/07 09:10:45;;;;;;;28.30;18.88;;;;;;;7.91;55.61;101722.81;4977049;28;20094;-81
2024/03/07 09:13:12;;;;;;;35.88;18.73;;;;;;;7.69;55.51;101723.22;4974844;28;20086;-80
2024/03/07 09:15:39;;;;;;;31.30;19.02;;;;;;;7.76;55.54;101732.44;4979003;28;20077;-80
2024/03/07 09:18:05;;;;;;;29.58;18.30;;;;;;;7.77;56.40;101718.34;4986787;28;20055;-80
2024/03/07 09:20:34;;;;;;;26.33;17.85;;;;;;;7.68;56.50;101719.72;4984406;28;20103;-82
2024/03/07 09:23:02;;;;;;;30.52;18.50;;;;;;;7.94;57.41;101715.56;4980361;28;20053;-81
2024/03/07 09:26:10;;;;;;;35.50;19.08;;;;;;;7.82;56.73;101727.69;4979621;28;20047;-83
2024/03/07 09:28:37;;;;;;;27.15;17.23;;;;;;;7.89;55.47;101712.34;4954423;28;20142;-81
2024/03/07 09:31:04;;;;;;;24.88;16.42;;;;;;;7.74;55.97;101716.72;4980040;28;20054;-80
2024/03/07 09:33:31;;;;;;;25.58;16.80;;;;;;;7.35;57.42;101725.13;4979621;28;20050;-81
2024/03/07 09:35:58;;;;;;;32.97;17.30;;;;;;;7.13;57.87;101735.16;4980429;28;20109;-79
2024/03/07 09:38:27;;;;;;;25.80;16.73;;;;;;;7.34;57.98;101723.44;4979985;28;20066;-81
2024/03/07 09:40:54;;;;;;;31.15;18.20;;;;;;;7.26;57.95;101723.00;4981018;28;20138;-80
2024/03/07 09:43:23;;;;;;;28.30;18.42;;;;;;;6.99;58.72;101728.03;4973804;28;20129;-81
2024/03/07 09:45:50;;;;;;;32.40;17.30;;;;;;;7.04;58.81;101734.72;4980688;28;20058;-80
2024/03/07 09:48:25;;;;;;;30.63;17.48;;;;;;;6.90;59.03;101718.84;4979757;28;20047;-80
2024/03/07 09:50:55;;;;;;;28.10;18.05;;;;;;;7.07;58.81;101726.66;4980073;28;20481;-80
2024/03/07 09:53:24;;;;;;;30.55;17.38;;;;;;;7.09;58.70;101730.06;4968344;28;20047;-80
2024/03/07 09:55:53;;;;;;;25.95;17.10;;;;;;;7.21;58.51;101725.06;4978568;28;20050;-80
2024/03/07 09:58:21;;;;;;;31.77;18.55;;;;;;;7.22;58.26;101729.38;4979514;28;20119;-80
2024/03/07 10:00:50;;;;;;;29.35;18.98;;;;;;;7.30;59.17;101729.81;4979005;28;20047;-78
2024/03/07 10:03:44;;;;;;;28.67;17.23;;;;;;;7.59;57.37;101725.53;4976120;28;20137;-81
2024/03/07 10:06:23;;;;;;;27.98;17.75;;;;;;;7.76;57.15;101722.75;4972308;28;20134;-81
2024/03/07 10:08:52;;;;;;;29.98;18.33;;;;;;;7.68;57.30;101737.31;4979839;28;20058;-82
2024/03/07 10:11:35;;;;;;;29.20;18.25;;;;;;;7.41;58.08;101711.63;4974492;28;20117;-78
2024/03/07 10:14:14;;;;;;;29.40;17.85;;;;;;;7.33;57.83;101730.50;4985548;28;20046;-81
2024/03/07 10:16:53;;;;;;;33.53;19.40;;;;;;;7.36;58.15;101729.44;4984964;28;20129;-80
2024/03/07 10:19:21;;;;;;;32.78;18.25;;;;;;;7.43;58.20;101719.44;4985261;28;20078;-79
2024/03/07 10:22:09;;;;;;;29.45;19.05;;;;;;;7.62;57.11;101729.75;4984387;28;20060;-82
2024/03/07 10:24:46;;;;;;;29.23;18.65;;;;;;;7.73;56.69;101727.38;4984823;28;20142;-79
2024/03/07 10:27:36;;;;;;;29.30;18.55;;;;;;;7.75;57.20;101720.22;4984617;28;20059;-82
2024/03/07 10:30:20;;;;;;;30.92;18.00;;;;;;;8.19;56.29;101725.50;4984456;28;20133;-82
2024/03/07 10:32:56;;;;;;;30.30;18.50;;;;;;;7.87;57.03;101714.25;4983760;28;20138;-81
2024/03/07 10:35:46;;;;;;;29.70;19.00;;;;;;;8.02;56.86;101709.84;4985257;28;20505;-82
2024/03/07 10:38:18;;;;;;;30.10;17.13;;;;;;;7.86;56.44;101707.28;4981050;28;20067;-79
2024/03/07 10:41:01;;;;;;;31.92;19.77;;;;;;;7.99;56.99;101684.53;4986507;28;20067;-79
2024/03/07 10:43:40;;;;;;;32.15;19.55;;;;;;;7.83;56.76;101681.09;4983453;28;20105;-80
2024/03/07 10:46:11;;;;;;;28.88;17.95;;;;;;;7.79;56.41;101683.06;4976843;28;20058;-79
2024/03/07 10:48:43;;;;;;;30.23;18.85;;;;;;;7.97;56.27;101678.47;4983079;28;20058;-83
2024/03/07 10:51:20;;;;;;;30.05;18.98;;;;;;;7.94;56.94;101675.16;4983107;28;20047;-83
2024/03/07 10:54:00;;;;;;;27.73;18.20;;;;;;;8.22;56.12;101674.38;4982465;28;20051;-82
2024/03/07 10:56:51;;;;;;;30.17;19.17;;;;;;;8.55;55.83;101679.41;4983508;28;20087;-80
2024/03/07 10:59:48;;;;;;;27.63;19.30;;;;;;;8.53;55.21;101671.59;4972075;28;20071;-83
2024/03/07 11:02:49;;;;;;;30.88;18.83;;;;;;;8.52;55.37;101671.66;4971945;28;20145;-80
2024/03/07 11:05:26;;;;;;;29.25;19.60;;;;;;;8.44;55.70;101677.44;4974195;28;20062;-80
2024/03/07 11:08:24;;;;;;;30.27;18.23;;;;;;;9.15;54.64;101665.88;4983630;28;20066;-80
2024/03/07 11:14:01;;;;;;;28.52;18.45;;;;;;;8.65;54.40;101653.28;4980298;28;20098;-81
2024/03/07 11:16:54;;;;;;;29.35;18.08;;;;;;;9.13;53.28;101657.22;4982823;28;20474;-82
2024/03/07 11:19:53;;;;;;;26.60;17.98;;;;;;;9.43;52.08;101646.44;4979047;28;20047;-81
2024/03/07 11:23:04;;;;;;;26.27;17.30;;;;;;;9.57;53.85;101641.09;4982336;28;20073;-79
2024/03/07 11:25:52;;;;;;;29.45;18.38;;;;;;;9.67;52.20;101643.09;4980015;28;20140;-80
2024/03/07 11:29:04;;;;;;;25.45;17.23;;;;;;;9.37;52.26;101641.53;4978160;28;20077;-81
2024/03/07 11:37:22;;;;;;;27.30;17.67;;;;;;;9.23;53.26;101647.75;4957946;23;20060;-81
2024/03/07 11:39:57;;;;;;;29.45;17.80;;;;;;;9.31;52.87;101629.59;4924209;29;20152;-80
2024/03/07 11:42:28;;;;;;;32.95;17.45;;;;;;;9.04;53.50;101634.06;4929361;29;20044;-81
2024/03/07 11:45:03;;;;;;;27.98;18.10;;;;;;;8.89;53.77;101630.63;4924909;29;20135;-80
2024/03/07 11:47:44;;;;;;;25.70;17.08;;;;;;;9.01;53.59;101632.44;4924035;29;20048;-80
2024/03/07 11:50:25;;;;;;;29.15;18.13;;;;;;;9.36;53.70;101616.94;4923686;29;20063;-79
2024/03/07 11:52:59;;;;;;;27.45;17.33;;;;;;;9.26;54.27;101612.38;4935158;29;20055;-81
2024/03/07 11:55:41;;;;;;;28.60;18.95;;;;;;;9.24;53.61;101614.25;4936153;29;20096;-80